createdAt,value
2019-04-01T00:00:50.182Z,101180.15
2019-04-01T00:03:53.734Z,101180.15
2019-04-01T00:06:58.261Z,101189.55
2019-04-01T00:10:02.775Z,101192.22
2019-04-01T00:13:06.284Z,101189.55
2019-04-01T00:16:10.804Z,101188.78
2019-04-01T00:19:14.251Z,101194.11
2019-04-01T00:22:17.699Z,101198.09
2019-04-01T00:25:21.198Z,101198.66
2019-04-01T00:28:24.654Z,101203.97
2019-04-01T00:31:28.101Z,101205.80
2019-04-01T00:34:31.588Z,101211.58
2019-04-01T00:37:35.033Z,101217.49
2019-04-01T00:40:38.611Z,101216.53
2019-04-01T00:43:54.697Z,101213.51
2019-04-01T00:46:58.223Z,101215.77
2019-04-01T00:50:01.723Z,101226.41
2019-04-01T00:53:05.202Z,101215.39
2019-04-01T00:56:08.854Z,101221.67
2019-04-01T00:59:12.287Z,101222.50
2019-04-01T01:02:16.823Z,101228.33
2019-04-01T01:05:20.568Z,101220.90
2019-04-01T01:08:24.035Z,101233.83
2019-04-01T01:11:27.563Z,101231.17
2019-04-01T01:14:31.052Z,101227.55
2019-04-01T01:17:34.561Z,101231.17
2019-04-01T01:20:38.037Z,101228.51
2019-04-01T01:23:41.560Z,101235.16
2019-04-01T01:26:46.068Z,101235.71
2019-04-01T01:29:49.497Z,101228.70
2019-04-01T01:32:53.007Z,101232.69
2019-04-01T01:35:56.457Z,101234.02
2019-04-01T01:39:00.084Z,101226.99
2019-04-01T01:42:03.602Z,101238.09
2019-04-01T01:45:07.045Z,101236.77
2019-04-01T01:48:10.496Z,101234.56
2019-04-01T01:51:14.083Z,101235.16
2019-04-01T01:54:17.573Z,101235.16
2019-04-01T01:57:21.077Z,101232.00
2019-04-01T02:00:26.278Z,101235.16
2019-04-01T02:03:30.735Z,101233.45
2019-04-01T02:06:35.254Z,101233.45
2019-04-01T02:09:38.758Z,101233.05
2019-04-01T02:12:43.303Z,101232.68
2019-04-01T02:15:46.783Z,101234.02
2019-04-01T02:18:50.290Z,101236.67
2019-04-01T02:21:53.802Z,101237.63
2019-04-01T02:24:58.496Z,101235.34
2019-04-01T02:28:01.923Z,101229.25
2019-04-01T02:31:05.410Z,101233.23
2019-04-01T02:34:08.946Z,101239.52
2019-04-01T02:37:12.469Z,101236.39
2019-04-01T02:40:15.920Z,101232.50
2019-04-01T02:43:19.467Z,101235.16
2019-04-01T02:46:23.041Z,101237.41
2019-04-01T02:49:27.544Z,101233.42
2019-04-01T02:52:30.993Z,101232.09
2019-04-01T02:55:34.552Z,101231.26
2019-04-01T02:58:38.068Z,101234.01
2019-04-01T03:01:41.566Z,101226.03
2019-04-01T03:04:45.061Z,101226.98
2019-04-01T03:07:49.585Z,101226.98
2019-04-01T03:10:55.116Z,101227.91
2019-04-01T03:13:58.634Z,101238.09
2019-04-01T03:17:02.063Z,101245.70
2019-04-01T03:20:05.800Z,101239.51
2019-04-01T03:23:10.276Z,101246.16
2019-04-01T03:26:13.791Z,101240.84
2019-04-01T03:29:17.262Z,101242.26
2019-04-01T03:32:20.803Z,101243.13
2019-04-01T03:35:24.373Z,101238.64
2019-04-01T03:38:28.314Z,101243.13
2019-04-01T03:41:33.030Z,101236.07
2019-04-01T03:44:37.530Z,101244.05
2019-04-01T03:47:41.248Z,101248.03
2019-04-01T03:50:44.832Z,101247.30
2019-04-01T03:53:48.442Z,101250.91
2019-04-01T03:56:51.955Z,101247.76
2019-04-01T03:59:55.439Z,101244.64
2019-04-01T04:02:58.942Z,101241.61
2019-04-01T04:06:02.436Z,101250.05
2019-04-01T04:09:06.541Z,101250.05
2019-04-01T04:12:10.211Z,101245.69
2019-04-01T04:15:13.674Z,101243.86
2019-04-01T04:18:17.262Z,101243.48
2019-04-01T04:21:23.781Z,101251.47
2019-04-01T04:24:26.111Z,101248.89
2019-04-01T04:27:29.614Z,101254.22
2019-04-01T04:30:34.143Z,101252.02
2019-04-01T04:33:37.662Z,101248.52
2019-04-01T04:36:41.097Z,101254.67
2019-04-01T04:39:44.550Z,101252.98
2019-04-01T04:42:48.095Z,101256.09
2019-04-01T04:45:51.556Z,101255.27
2019-04-01T04:48:55.157Z,101249.54
2019-04-01T04:51:58.646Z,101256.59
2019-04-01T04:55:02.163Z,101257.11
2019-04-01T04:58:05.651Z,101257.52
2019-04-01T05:01:09.138Z,101261.59
2019-04-01T05:04:12.661Z,101259.77
2019-04-01T05:07:16.263Z,101268.61
2019-04-01T05:10:19.849Z,101266.05
2019-04-01T05:13:24.403Z,101271.36
2019-04-01T05:16:33.824Z,101273.15
2019-04-01T05:19:37.267Z,101266.05
2019-04-01T05:22:40.781Z,101280.75
2019-04-01T05:25:44.221Z,101273.64
2019-04-01T05:28:47.742Z,101273.23
2019-04-01T05:31:51.150Z,101275.16
2019-04-01T05:34:55.759Z,101282.63
2019-04-01T05:37:59.244Z,101281.80
2019-04-01T05:41:02.844Z,101275.16
2019-04-01T05:44:06.366Z,101279.14
2019-04-01T05:47:09.869Z,101279.59
2019-04-01T05:50:13.366Z,101281.39
2019-04-01T05:53:16.869Z,101287.66
2019-04-01T05:56:20.345Z,101282.72
2019-04-01T05:59:29.698Z,101285.00
2019-04-01T06:02:33.323Z,101284.27
2019-04-01T06:05:37.916Z,101292.61
2019-04-01T06:08:41.525Z,101288.25
2019-04-01T06:11:45.023Z,101288.25
2019-04-01T06:14:51.594Z,101282.53
2019-04-01T06:17:55.115Z,101284.27
2019-04-01T06:20:58.613Z,101286.52
2019-04-01T06:24:04.355Z,101286.14
2019-04-01T06:27:07.852Z,101284.34
2019-04-01T06:30:11.365Z,101291.45
2019-04-01T06:33:14.810Z,101297.73
2019-04-01T06:36:18.238Z,101290.22
2019-04-01T06:39:22.681Z,101293.34
2019-04-01T06:42:27.188Z,101298.28
2019-04-01T06:45:31.620Z,101299.61
2019-04-01T06:48:35.250Z,101296.95
2019-04-01T06:51:38.734Z,101303.22
2019-04-01T06:54:42.241Z,101298.77
2019-04-01T06:57:46.752Z,101299.78
2019-04-01T07:00:50.252Z,101301.52
2019-04-01T07:03:54.782Z,101296.20
2019-04-01T07:06:58.277Z,101297.53
2019-04-01T07:10:02.112Z,101294.87
2019-04-01T07:13:05.593Z,101293.55
2019-04-01T07:16:15.967Z,101294.47
2019-04-01T07:19:14.321Z,101296.20
2019-04-01T07:22:17.826Z,101302.94
2019-04-01T07:25:21.389Z,101296.20
2019-04-01T07:28:24.847Z,101300.65
2019-04-01T07:31:28.431Z,101302.44
2019-04-01T07:34:32.304Z,101299.78
2019-04-01T07:37:35.751Z,101298.45
2019-04-01T07:40:39.281Z,101300.73
2019-04-01T07:43:42.905Z,101298.45
2019-04-01T07:46:46.470Z,101305.50
2019-04-01T07:49:50.026Z,101305.09
2019-04-01T07:52:55.407Z,101298.08
2019-04-01T07:56:02.361Z,101300.73
2019-04-01T07:59:04.163Z,101301.69
2019-04-01T08:02:08.677Z,101301.69
2019-04-01T08:05:12.193Z,101300.73
2019-04-01T08:08:15.691Z,101303.39
2019-04-01T08:11:19.210Z,101310.04
2019-04-01T08:14:22.686Z,101300.73
2019-04-01T08:17:26.278Z,101305.97
2019-04-01T08:20:29.876Z,101298.08
2019-04-01T08:23:34.407Z,101288.31
2019-04-01T08:26:39.964Z,101297.13
2019-04-01T08:29:44.590Z,101286.12
2019-04-01T08:32:48.194Z,101282.13
2019-04-01T08:35:51.809Z,101285.43
2019-04-01T08:38:56.417Z,101285.16
2019-04-01T08:41:59.954Z,101281.17
2019-04-01T08:45:03.761Z,101278.15
2019-04-01T08:48:07.329Z,101273.38
2019-04-01T08:51:10.858Z,101276.45
2019-04-01T08:54:14.342Z,101276.45
2019-04-01T08:57:17.925Z,101272.46
2019-04-01T09:00:21.666Z,101266.19
2019-04-01T09:03:25.275Z,101268.84
2019-04-01T09:06:31.297Z,101267.05
2019-04-01T09:09:34.102Z,101255.55
2019-04-01T09:12:37.555Z,101254.23
2019-04-01T09:15:41.091Z,101251.20
2019-04-01T09:18:45.610Z,101250.24
2019-04-01T09:21:49.262Z,101243.97
2019-04-01T09:24:53.213Z,101243.05
2019-04-01T09:27:56.764Z,101242.18
2019-04-01T09:31:01.422Z,101234.12
2019-04-01T09:34:04.971Z,101236.77
2019-04-01T09:37:09.509Z,101242.09
2019-04-01T09:40:14.639Z,101242.46
2019-04-01T09:43:18.190Z,101230.13
2019-04-01T09:46:22.683Z,101229.55
2019-04-01T09:49:26.223Z,101229.55
2019-04-01T09:52:29.883Z,101228.62
2019-04-01T09:55:33.631Z,101229.45
2019-04-01T09:58:37.265Z,101224.55
2019-04-01T10:01:40.780Z,101224.45
2019-04-01T10:04:44.282Z,101215.89
2019-04-01T10:07:48.021Z,101217.22
2019-04-01T10:10:51.686Z,101209.53
2019-04-01T10:13:55.224Z,101209.53
2019-04-01T10:16:58.702Z,101207.19
2019-04-01T10:20:02.353Z,101197.88
2019-04-01T10:23:06.919Z,101203.11
2019-04-01T10:26:10.437Z,101192.38
2019-04-01T10:29:13.939Z,101189.63
2019-04-01T10:32:17.529Z,101181.56
2019-04-01T10:35:21.047Z,101181.97
2019-04-01T10:38:24.634Z,101185.18
2019-04-01T10:41:30.181Z,101174.45
2019-04-01T10:44:33.742Z,101167.09
2019-04-01T10:47:38.390Z,101163.45
2019-04-01T10:50:41.915Z,101163.25
2019-04-01T10:53:45.450Z,101167.99
2019-04-01T10:56:48.959Z,101164.01
2019-04-01T10:59:52.470Z,101150.53
2019-04-01T11:02:55.994Z,101151.45
2019-04-01T11:05:59.657Z,101149.38
2019-04-01T11:09:04.782Z,101149.75
2019-04-01T11:12:08.252Z,101151.08
2019-04-01T11:15:15.317Z,101142.55
2019-04-01T11:18:17.087Z,101134.00
2019-04-01T11:21:22.669Z,101145.40
2019-04-01T11:24:26.143Z,101137.98
2019-04-01T11:27:29.642Z,101131.34
2019-04-01T11:30:36.719Z,101131.34
2019-04-01T11:33:38.618Z,101129.48
2019-04-01T11:36:43.190Z,101125.70
2019-04-01T11:39:46.877Z,101121.42
2019-04-01T11:42:50.495Z,101123.30
2019-04-01T11:45:54.144Z,101121.16
2019-04-01T11:48:57.779Z,101116.43
2019-04-01T11:52:01.379Z,101109.62
2019-04-01T11:55:06.604Z,101106.78
2019-04-01T11:58:10.516Z,101097.69
2019-04-01T12:01:14.214Z,101104.89
2019-04-01T12:04:17.807Z,101099.13
2019-04-01T12:07:21.350Z,101090.20
2019-04-01T12:10:24.813Z,101084.25
2019-04-01T12:13:28.995Z,101083.15
2019-04-01T12:16:32.843Z,101068.92
2019-04-01T12:19:36.344Z,101074.14
2019-04-01T12:22:40.878Z,101070.44
2019-04-01T12:25:45.205Z,101061.55
2019-04-01T12:28:48.715Z,101060.59
2019-04-01T12:31:52.211Z,101056.61
2019-04-01T12:34:55.679Z,101059.94
2019-04-01T12:37:59.211Z,101044.84
2019-04-01T12:41:02.701Z,101035.36
2019-04-01T12:44:06.201Z,101032.61
2019-04-01T12:47:09.824Z,101028.53
2019-04-01T12:50:14.418Z,101029.31
2019-04-01T12:53:18.039Z,101024.28
2019-04-01T12:56:21.631Z,101025.97
2019-04-01T12:59:25.133Z,101025.88
2019-04-01T13:02:28.617Z,101011.64
2019-04-01T13:05:32.230Z,101000.45
2019-04-01T13:08:35.852Z,101005.18
2019-04-01T13:11:39.337Z,101003.85
2019-04-01T13:14:43.508Z,100990.97
2019-04-01T13:17:47.399Z,100990.38
2019-04-01T13:20:51.851Z,100984.60
2019-04-01T13:23:55.857Z,100976.44
2019-04-01T13:27:00.301Z,100979.00
2019-04-01T13:30:04.225Z,100969.98
2019-04-01T13:33:07.737Z,100965.99
2019-04-01T13:36:11.269Z,100963.14
2019-04-01T13:39:14.744Z,100960.76
2019-04-01T13:42:18.317Z,100948.24
2019-04-01T13:45:21.995Z,100947.28
2019-04-01T13:48:25.449Z,100938.16
2019-04-01T13:51:30.242Z,100930.45
2019-04-01T13:54:34.903Z,100937.00
2019-04-01T13:57:39.440Z,100930.75
2019-04-01T14:00:42.956Z,100927.88
2019-04-01T14:03:46.547Z,100926.84
2019-04-01T14:06:50.174Z,100919.70
2019-04-01T14:09:55.254Z,100918.17
2019-04-01T14:12:59.002Z,100917.24
2019-04-01T14:16:02.473Z,100906.41
2019-04-01T14:19:06.047Z,100906.81
2019-04-01T14:22:09.508Z,100901.00
2019-04-01T14:25:13.989Z,100891.13
2019-04-01T14:28:17.783Z,100890.93
2019-04-01T14:31:22.005Z,100896.15
2019-04-01T14:34:26.680Z,100894.82
2019-04-01T14:37:30.248Z,100887.11
2019-04-01T14:40:33.769Z,100886.41
2019-04-01T14:43:37.271Z,100871.32
2019-04-01T14:46:40.993Z,100884.16
2019-04-01T14:49:44.483Z,100871.22
2019-04-01T14:52:49.005Z,100873.31
2019-04-01T14:55:52.510Z,100870.45
2019-04-01T14:58:56.010Z,100870.61
2019-04-01T15:02:01.999Z,100864.90
2019-04-01T15:05:05.179Z,100868.69
2019-04-01T15:08:08.794Z,100861.47
2019-04-01T15:11:14.411Z,100861.37
2019-04-01T15:14:18.139Z,100856.41
2019-04-01T15:17:21.773Z,100847.77
2019-04-01T15:20:26.423Z,100857.80
2019-04-01T15:23:31.091Z,100845.27
2019-04-01T15:26:34.783Z,100844.50
2019-04-01T15:29:38.400Z,100837.85
2019-04-01T15:32:41.890Z,100837.75
2019-04-01T15:35:45.390Z,100833.66
2019-04-01T15:38:48.899Z,100832.53
2019-04-01T15:41:52.423Z,100829.56
2019-04-01T15:44:55.902Z,100826.33
2019-04-01T15:47:59.408Z,100822.05
2019-04-01T15:51:04.028Z,100822.20
2019-04-01T15:54:07.642Z,100820.25
2019-04-01T15:57:11.119Z,100817.13
2019-04-01T16:00:14.615Z,100815.40
2019-04-01T16:03:18.150Z,100806.09
2019-04-01T16:06:22.647Z,100802.20
2019-04-01T16:09:26.252Z,100801.73
2019-04-01T16:12:29.862Z,100799.59
2019-04-01T16:15:33.570Z,100799.38
2019-04-01T16:18:37.079Z,100797.33
2019-04-01T16:21:40.570Z,100792.11
2019-04-01T16:24:44.857Z,100792.94
2019-04-01T16:27:49.648Z,100785.41
2019-04-01T16:30:53.132Z,100790.73
2019-04-01T16:33:56.617Z,100784.66
2019-04-01T16:37:00.143Z,100785.72
2019-04-01T16:40:05.938Z,100785.93
2019-04-01T16:43:09.807Z,100780.72
2019-04-01T16:46:13.394Z,100775.81
2019-04-01T16:49:16.994Z,100777.95
2019-04-01T16:52:20.500Z,100775.39
2019-04-01T16:55:24.001Z,100779.69
2019-04-01T16:58:28.546Z,100779.59
2019-04-01T17:01:32.020Z,100780.86
2019-04-01T17:04:35.640Z,100779.53
2019-04-01T17:07:41.216Z,100778.05
2019-04-01T17:10:44.980Z,100782.59
2019-04-01T17:13:48.487Z,100786.22
2019-04-01T17:16:51.986Z,100777.13
2019-04-01T17:19:55.638Z,100778.09
2019-04-01T17:23:00.173Z,100782.61
2019-04-01T17:26:04.521Z,100783.41
2019-04-01T17:29:08.030Z,100779.79
2019-04-01T17:32:11.531Z,100773.95
2019-04-01T17:35:15.053Z,100772.13
2019-04-01T17:38:18.541Z,100771.69
2019-04-01T17:41:22.050Z,100777.73
2019-04-01T17:44:25.662Z,100773.02
2019-04-01T17:47:29.168Z,100775.41
2019-04-01T17:50:32.908Z,100783.48
2019-04-01T17:53:36.470Z,100783.09
2019-04-01T17:56:40.058Z,100781.49
2019-04-01T17:59:44.235Z,100783.52
2019-04-01T18:02:47.988Z,100786.55
2019-04-01T18:05:51.486Z,100788.44
2019-04-01T18:08:54.984Z,100787.80
2019-04-01T18:11:58.482Z,100794.55
2019-04-01T18:15:02.058Z,100795.97
2019-04-01T18:18:05.689Z,100795.02
2019-04-01T18:21:09.198Z,100794.58
2019-04-01T18:24:14.748Z,100792.48
2019-04-01T18:27:19.285Z,100794.31
2019-04-01T18:30:23.801Z,100799.13
2019-04-01T18:33:27.283Z,100801.98
2019-04-01T18:36:30.801Z,100802.20
2019-04-01T18:39:47.424Z,100798.78
2019-04-01T18:42:40.457Z,100795.36
2019-04-01T18:45:43.971Z,100798.78
2019-04-01T18:48:48.237Z,100793.57
2019-04-01T18:51:51.999Z,100800.50
2019-04-01T18:54:56.514Z,100808.11
2019-04-01T18:58:07.013Z,100799.47
2019-04-01T19:01:10.469Z,100806.77
2019-04-01T19:04:14.093Z,100801.30
2019-04-01T19:07:17.518Z,100804.31
2019-04-01T19:10:21.091Z,100801.83
2019-04-01T19:13:24.694Z,100805.98
2019-04-01T19:16:29.319Z,100798.78
2019-04-01T19:19:32.866Z,100801.91
2019-04-01T19:22:36.411Z,100800.67
2019-04-01T19:25:39.933Z,100797.92
2019-04-01T19:28:43.416Z,100804.46
2019-04-01T19:31:47.027Z,100800.48
2019-04-01T19:34:50.632Z,100796.40
2019-04-01T19:37:54.128Z,100795.83
2019-04-01T19:40:59.799Z,100794.01
2019-04-01T19:44:02.979Z,100794.41
2019-04-01T19:47:07.037Z,100793.45
2019-04-01T19:50:11.840Z,100794.77
2019-04-01T19:53:15.275Z,100793.91
2019-04-01T19:56:18.862Z,100792.68
2019-04-01T19:59:25.830Z,100787.77
2019-04-01T20:02:27.844Z,100792.68
2019-04-01T20:05:32.596Z,100793.91
2019-04-01T20:08:37.015Z,100786.04
2019-04-01T20:11:40.759Z,100782.45
2019-04-01T20:14:44.326Z,100794.01
2019-04-01T20:17:48.045Z,100787.97
2019-04-01T20:20:51.760Z,100787.00
2019-04-01T20:24:02.408Z,100784.34
2019-04-01T20:27:05.907Z,100783.61
2019-04-01T20:30:09.867Z,100790.75
2019-04-01T20:33:18.032Z,100785.53
2019-04-01T20:36:28.378Z,100784.77
2019-04-01T20:39:25.279Z,100779.45
2019-04-01T20:42:29.262Z,100779.45
2019-04-01T20:45:33.786Z,100779.09
2019-04-01T20:48:37.299Z,100778.72
2019-04-01T20:51:40.813Z,100775.66
2019-04-01T20:54:46.327Z,100775.89
2019-04-01T20:57:49.831Z,100769.25
2019-04-01T21:00:53.333Z,100767.53
2019-04-01T21:03:58.818Z,100764.97
2019-04-01T21:07:02.606Z,100759.20
2019-04-01T21:10:06.643Z,100763.27
2019-04-01T21:13:10.201Z,100754.84
2019-04-01T21:16:13.702Z,100754.41
2019-04-01T21:19:17.224Z,100746.95
2019-04-01T21:22:21.727Z,100745.35
2019-04-01T21:25:25.239Z,100745.72
2019-04-01T21:28:28.718Z,100740.14
2019-04-01T21:31:33.255Z,100742.13
2019-04-01T21:34:36.742Z,100735.85
2019-04-01T21:37:41.189Z,100733.70
2019-04-01T21:40:44.620Z,100729.81
2019-04-01T21:43:49.001Z,100728.12
2019-04-01T21:46:52.578Z,100724.70
2019-04-01T21:49:57.127Z,100719.02
2019-04-01T21:53:02.017Z,100720.25
2019-04-01T21:56:06.782Z,100708.00
2019-04-01T21:59:10.287Z,100706.31
2019-04-01T22:02:14.257Z,100702.33
2019-04-01T22:05:18.847Z,100701.97
2019-04-01T22:08:22.331Z,100693.04
2019-04-01T22:11:25.832Z,100690.58
2019-04-01T22:14:29.328Z,100687.20
2019-04-01T22:17:32.927Z,100685.10
2019-04-01T22:20:36.558Z,100687.20
2019-04-01T22:23:40.007Z,100689.65
2019-04-01T22:26:43.651Z,100690.05
2019-04-01T22:29:47.084Z,100683.02
2019-04-01T22:32:50.536Z,100678.30
2019-04-01T22:35:54.042Z,100680.48
2019-04-01T22:38:57.460Z,100676.20
2019-04-01T22:42:00.907Z,100676.97
2019-04-01T22:45:06.388Z,100676.20
2019-04-01T22:48:09.896Z,100669.11
2019-04-01T22:51:13.491Z,100666.92
2019-04-01T22:54:17.174Z,100661.24
2019-04-01T22:57:20.738Z,100661.34
2019-04-01T23:00:24.237Z,100657.09
2019-04-01T23:06:32.227Z,100647.44
2019-04-01T23:09:35.694Z,100648.00
2019-04-01T23:12:41.121Z,100643.06
2019-04-01T23:15:44.573Z,100639.67
2019-04-01T23:18:48.064Z,100634.37
2019-04-01T23:21:52.595Z,100634.47
2019-04-01T23:24:56.408Z,100636.16
2019-04-01T23:28:01.023Z,100635.89
2019-04-01T23:31:04.551Z,100632.88
2019-04-01T23:34:07.988Z,100626.23
2019-04-01T23:37:11.435Z,100622.63
2019-04-01T23:40:15.048Z,100622.26
2019-04-01T23:43:19.566Z,100624.52
2019-04-01T23:46:23.081Z,100614.86
2019-04-01T23:49:26.566Z,100607.36
2019-04-01T23:52:30.065Z,100606.53
2019-04-01T23:55:33.934Z,100601.80
2019-04-01T23:58:39.530Z,100597.45
